Kikinda, Serbia
Current Conditions -  °F | °C
As of 12:45 AM on Sunday 23 Nov 2014 (Local Time) from LHUD Reporting Station
Broken Clouds Broken Clouds  
Wind Chill: 43°   Ceiling: 2600
Heat Index: 43°   Visibility: 6mi
Dew Point: 36°   Wind: 0mph
Humidity: 76%   Direction: NA
Pressure: 30.39"   Gusts: NA
Location:  45.84°N, 20.45°E
Report Text: LHUD 222245Z 00000KT 9999 BKN026 06/02 Q1029
Loading
Personal Weather Stations






























Interactive Weather Map New forecast layout! Learn more

10-Day Weather Forecast

Advertisements
Track Severe Weather on mobile